Accueil
METAR-TAF:

METAR-TAF

Aéroports :

Aéroport John G. Diefenbaker

Saskatoon, Saskatchewan, Canada

latitude: 52-10N, longitude: 106-41W, altitude: 501 m

Observation

Le bulletin a été fait il y a 45 minutes, à 18:00 UTC
Vent 2 kt de direction variable
Température 5°C
Humidité 52%
Pression 1027 hPa
Visibilité: 24.1 km
Quelques nuages à une hauteur de 30000 ft

METAR: CYXE 221800Z VRB02KT 15SM FEW300 05/M04 A3033 RMK CI1 SLP297

Heure: 12:45 (18:45 UTC)

Prévision

Le bulletin a été fait il y a 1 heure et 7 minutes, à 17:38 UTC
Prévision valable du 22 à 18 UTC au 23 à 18 UTC
Vent 3 kt de direction variable
Visibilité: 10 km
Quelques nuages à une hauteur de 25000 ft
Evoluant progressivement
du 22 à 20 UTC au 22 à 22 UTC
Vent 8 kt de est/sud-est
Evoluant progressivement
du 23 à 13 UTC au 23 à 15 UTC
Vent 12 kt de sud-est

TAF: CYXE 221738Z 2218/2318 VRB03KT P6SM FEW250 BECMG 2220/2222 12008KT BECMG 2313/2315 14012KT RMK NXT FCST BY 230000Z

Observations et prévisions météorologiques de plus de 4000 aéroports (messages METAR et TAF).

Les stations disponibles sont représentées par des disques jaunes et rouges sur la carte.

Passer la souris dessus pour voir le nom de la station.

Cliquer dessus pour voir les observations et prévisions météorologiques.

Pour changer de carte: cliquez sur les boutons verts avec une croix noire pour zoomer, sur le bouton vert avec un tiret pour effectuer un zoom arrière, ou sur les flèches vertes pour les cartes adjacentes.


METAR-TAF: